sensor_id;sensor_type;location;lat;lon;timestamp;temperature;humidity
3792;DHT22;1911;53.768;11.474;2023-04-24T00:00:16;11.80;99.90
3792;DHT22;1911;53.768;11.474;2023-04-24T00:02:43;11.70;99.90
3792;DHT22;1911;53.768;11.474;2023-04-24T00:05:13;11.80;99.90
3792;DHT22;1911;53.768;11.474;2023-04-24T00:07:39;11.80;99.90
3792;DHT22;1911;53.768;11.474;2023-04-24T00:10:06;11.70;99.90
3792;DHT22;1911;53.768;11.474;2023-04-24T00:12:31;11.80;99.90
3792;DHT22;1911;53.768;11.474;2023-04-24T00:14:57;11.80;99.90
3792;DHT22;1911;53.768;11.474;2023-04-24T00:17:23;11.70;99.90
3792;DHT22;1911;53.768;11.474;2023-04-24T00:19:48;11.70;99.90
3792;DHT22;1911;53.768;11.474;2023-04-24T00:22:17;11.80;99.90
3792;DHT22;1911;53.768;11.474;2023-04-24T00:24:43;11.80;84.70
3792;DHT22;1911;53.768;11.474;2023-04-24T00:27:08;11.80;99.90
3792;DHT22;1911;53.768;11.474;2023-04-24T00:29:34;11.90;99.90
3792;DHT22;1911;53.768;11.474;2023-04-24T00:32:00;11.90;52.00
3792;DHT22;1911;53.768;11.474;2023-04-24T00:34:26;11.90;22.40
3792;DHT22;1911;53.768;11.474;2023-04-24T00:36:51;11.90;1.00
3792;DHT22;1911;53.768;11.474;2023-04-24T00:39:20;12.00;1.00
3792;DHT22;1911;53.768;11.474;2023-04-24T00:41:46;12.00;1.00
3792;DHT22;1911;53.768;11.474;2023-04-24T00:44:13;12.00;1.00
3792;DHT22;1911;53.768;11.474;2023-04-24T00:46:39;11.90;1.00
3792;DHT22;1911;53.768;11.474;2023-04-24T00:49:05;11.90;1.00
3792;DHT22;1911;53.768;11.474;2023-04-24T00:51:31;11.90;1.00
3792;DHT22;1911;53.768;11.474;2023-04-24T00:53:58;12.00;1.00
3792;DHT22;1911;53.768;11.474;2023-04-24T00:56:24;11.90;26.30
3792;DHT22;1911;53.768;11.474;2023-04-24T01:02:01;11.90;6.50
3792;DHT22;1911;53.768;11.474;2023-04-24T01:04:27;11.90;1.00
3792;DHT22;1911;53.768;11.474;2023-04-24T01:06:53;11.90;1.00
3792;DHT22;1911;53.768;11.474;2023-04-24T01:09:22;11.90;31.70
3792;DHT22;1911;53.768;11.474;2023-04-24T01:11:48;11.80;38.40
3792;DHT22;1911;53.768;11.474;2023-04-24T01:14:15;11.90;1.00
3792;DHT22;1911;53.768;11.474;2023-04-24T01:16:40;11.90;94.80
3792;DHT22;1911;53.768;11.474;2023-04-24T01:19:07;11.80;21.10
3792;DHT22;1911;53.768;11.474;2023-04-24T01:21:35;11.80;99.90
3792;DHT22;1911;53.768;11.474;2023-04-24T01:24:02;11.80;99.90
3792;DHT22;1911;53.768;11.474;2023-04-24T01:26:28;11.80;99.90
3792;DHT22;1911;53.768;11.474;2023-04-24T01:28:54;11.80;99.90
3792;DHT22;1911;53.768;11.474;2023-04-24T01:31:20;11.90;99.90
3792;DHT22;1911;53.768;11.474;2023-04-24T01:33:45;12.00;99.90
3792;DHT22;1911;53.768;11.474;2023-04-24T01:36:11;12.00;99.90
3792;DHT22;1911;53.768;11.474;2023-04-24T01:38:37;12.00;1.00
3792;DHT22;1911;53.768;11.474;2023-04-24T01:41:03;12.10;1.00
3792;DHT22;1911;53.768;11.474;2023-04-24T01:43:29;12.30;1.00
3792;DHT22;1911;53.768;11.474;2023-04-24T01:45:55;12.30;1.00
3792;DHT22;1911;53.768;11.474;2023-04-24T01:48:20;12.30;1.00
3792;DHT22;1911;53.768;11.474;2023-04-24T01:50:46;12.30;1.00
3792;DHT22;1911;53.768;11.474;2023-04-24T01:53:12;12.30;1.00
3792;DHT22;1911;53.768;11.474;2023-04-24T01:55:38;12.20;4.50
3792;DHT22;1911;53.768;11.474;2023-04-24T01:58:03;12.20;32.50
3792;DHT22;1911;53.768;11.474;2023-04-24T02:00:29;12.10;99.90
3792;DHT22;1911;53.768;11.474;2023-04-24T02:02:55;12.00;99.90
3792;DHT22;1911;53.768;11.474;2023-04-24T02:05:21;11.80;99.90
3792;DHT22;1911;53.768;11.474;2023-04-24T02:07:46;11.70;99.90
3792;DHT22;1911;53.768;11.474;2023-04-24T02:10:12;11.50;99.90
3792;DHT22;1911;53.768;11.474;2023-04-24T02:12:38;11.30;1.00
3792;DHT22;1911;53.768;11.474;2023-04-24T02:15:04;11.20;99.90
3792;DHT22;1911;53.768;11.474;2023-04-24T02:17:30;11.20;99.90
3792;DHT22;1911;53.768;11.474;2023-04-24T02:19:56;11.10;99.90
3792;DHT22;1911;53.768;11.474;2023-04-24T02:22:21;11.10;99.90
3792;DHT22;1911;53.768;11.474;2023-04-24T02:24:47;11.10;99.90
3792;DHT22;1911;53.768;11.474;2023-04-24T02:27:12;11.10;99.90
3792;DHT22;1911;53.768;11.474;2023-04-24T02:29:38;11.10;99.90
3792;DHT22;1911;53.768;11.474;2023-04-24T02:32:04;11.10;99.90
3792;DHT22;1911;53.768;11.474;2023-04-24T02:34:29;11.00;99.90
3792;DHT22;1911;53.768;11.474;2023-04-24T02:36:55;11.00;99.90
3792;DHT22;1911;53.768;11.474;2023-04-24T02:39:21;11.00;99.90
3792;DHT22;1911;53.768;11.474;2023-04-24T02:41:47;11.00;99.90
3792;DHT22;1911;53.768;11.474;2023-04-24T02:44:12;11.00;99.90
3792;DHT22;1911;53.768;11.474;2023-04-24T02:46:38;11.00;99.90
3792;DHT22;1911;53.768;11.474;2023-04-24T02:49:03;11.00;99.90
3792;DHT22;1911;53.768;11.474;2023-04-24T02:51:29;11.00;99.90
3792;DHT22;1911;53.768;11.474;2023-04-24T02:53:55;10.90;99.90
3792;DHT22;1911;53.768;11.474;2023-04-24T02:56:21;10.90;99.90
3792;DHT22;1911;53.768;11.474;2023-04-24T02:58:46;10.80;99.90
3792;DHT22;1911;53.768;11.474;2023-04-24T03:01:12;10.90;99.90
3792;DHT22;1911;53.768;11.474;2023-04-24T03:03:38;10.80;99.90
3792;DHT22;1911;53.768;11.474;2023-04-24T03:06:04;10.80;99.90
3792;DHT22;1911;53.768;11.474;2023-04-24T03:08:31;10.80;99.90
3792;DHT22;1911;53.768;11.474;2023-04-24T03:10:57;10.80;99.90
3792;DHT22;1911;53.768;11.474;2023-04-24T03:13:22;10.80;99.90
3792;DHT22;1911;53.768;11.474;2023-04-24T03:15:48;10.80;99.90
3792;DHT22;1911;53.768;11.474;2023-04-24T03:18:14;10.80;99.90
3792;DHT22;1911;53.768;11.474;2023-04-24T03:20:39;10.80;99.90
3792;DHT22;1911;53.768;11.474;2023-04-24T03:23:05;10.80;99.90
3792;DHT22;1911;53.768;11.474;2023-04-24T03:25:30;10.80;99.90
3792;DHT22;1911;53.768;11.474;2023-04-24T03:27:56;10.70;99.90
3792;DHT22;1911;53.768;11.474;2023-04-24T03:30:22;10.70;99.90
3792;DHT22;1911;53.768;11.474;2023-04-24T03:32:47;10.80;99.90
3792;DHT22;1911;53.768;11.474;2023-04-24T03:35:13;10.70;99.90
3792;DHT22;1911;53.768;11.474;2023-04-24T03:37:39;10.70;99.90
3792;DHT22;1911;53.768;11.474;2023-04-24T03:40:05;10.70;99.90
3792;DHT22;1911;53.768;11.474;2023-04-24T03:42:32;10.60;99.90
3792;DHT22;1911;53.768;11.474;2023-04-24T03:44:58;10.60;99.90
3792;DHT22;1911;53.768;11.474;2023-04-24T03:47:23;10.60;99.90
3792;DHT22;1911;53.768;11.474;2023-04-24T03:49:49;10.50;99.90
3792;DHT22;1911;53.768;11.474;2023-04-24T03:52:15;10.40;99.90
3792;DHT22;1911;53.768;11.474;2023-04-24T03:54:40;10.40;99.90
3792;DHT22;1911;53.768;11.474;2023-04-24T03:57:06;10.50;99.90
3792;DHT22;1911;53.768;11.474;2023-04-24T03:59:32;10.50;99.90
3792;DHT22;1911;53.768;11.474;2023-04-24T04:01:57;10.50;99.90
3792;DHT22;1911;53.768;11.474;2023-04-24T04:04:23;10.60;99.90
3792;DHT22;1911;53.768;11.474;2023-04-24T04:06:48;10.60;99.90
3792;DHT22;1911;53.768;11.474;2023-04-24T04:09:14;10.70;99.90
3792;DHT22;1911;53.768;11.474;2023-04-24T04:11:40;10.70;99.90
3792;DHT22;1911;53.768;11.474;2023-04-24T04:14:05;10.70;99.90
3792;DHT22;1911;53.768;11.474;2023-04-24T04:16:31;10.70;99.90
3792;DHT22;1911;53.768;11.474;2023-04-24T04:18:57;10.60;99.90
3792;DHT22;1911;53.768;11.474;2023-04-24T04:21:22;10.60;99.90
3792;DHT22;1911;53.768;11.474;2023-04-24T04:23:48;10.50;99.90
3792;DHT22;1911;53.768;11.474;2023-04-24T04:26:14;10.50;99.90
3792;DHT22;1911;53.768;11.474;2023-04-24T04:28:39;10.40;99.90
3792;DHT22;1911;53.768;11.474;2023-04-24T04:31:05;10.40;99.90
3792;DHT22;1911;53.768;11.474;2023-04-24T04:33:33;10.30;99.90
3792;DHT22;1911;53.768;11.474;2023-04-24T04:35:59;10.30;99.90
3792;DHT22;1911;53.768;11.474;2023-04-24T04:38:25;10.20;99.90
3792;DHT22;1911;53.768;11.474;2023-04-24T04:40:52;10.20;99.90
3792;DHT22;1911;53.768;11.474;2023-04-24T04:43:17;10.20;99.90
3792;DHT22;1911;53.768;11.474;2023-04-24T04:45:43;10.30;99.90
3792;DHT22;1911;53.768;11.474;2023-04-24T04:48:10;10.30;99.90
3792;DHT22;1911;53.768;11.474;2023-04-24T04:50:38;10.30;99.90
3792;DHT22;1911;53.768;11.474;2023-04-24T04:53:04;10.40;99.90
3792;DHT22;1911;53.768;11.474;2023-04-24T04:55:29;10.50;99.90
3792;DHT22;1911;53.768;11.474;2023-04-24T04:57:55;10.60;99.90
3792;DHT22;1911;53.768;11.474;2023-04-24T05:00:21;10.90;99.90
3792;DHT22;1911;53.768;11.474;2023-04-24T05:02:49;11.40;99.90
3792;DHT22;1911;53.768;11.474;2023-04-24T05:05:15;11.70;99.90
3792;DHT22;1911;53.768;11.474;2023-04-24T05:07:42;11.80;99.90
3792;DHT22;1911;53.768;11.474;2023-04-24T05:10:08;11.90;99.90
3792;DHT22;1911;53.768;11.474;2023-04-24T05:12:33;12.00;99.90
3792;DHT22;1911;53.768;11.474;2023-04-24T05:14:59;12.20;99.90
3792;DHT22;1911;53.768;11.474;2023-04-24T05:17:25;12.80;34.00
3792;DHT22;1911;53.768;11.474;2023-04-24T05:19:51;13.50;1.00
3792;DHT22;1911;53.768;11.474;2023-04-24T05:22:16;14.20;1.00
3792;DHT22;1911;53.768;11.474;2023-04-24T05:24:44;14.20;1.00
3792;DHT22;1911;53.768;11.474;2023-04-24T05:27:10;13.70;1.00
3792;DHT22;1911;53.768;11.474;2023-04-24T05:29:35;13.30;1.00
3792;DHT22;1911;53.768;11.474;2023-04-24T05:32:01;13.10;1.00
3792;DHT22;1911;53.768;11.474;2023-04-24T05:34:27;13.00;1.00
3792;DHT22;1911;53.768;11.474;2023-04-24T05:36:52;13.10;1.00
3792;DHT22;1911;53.768;11.474;2023-04-24T05:39:18;13.20;1.00
3792;DHT22;1911;53.768;11.474;2023-04-24T05:41:45;13.50;1.00
3792;DHT22;1911;53.768;11.474;2023-04-24T05:44:10;14.10;1.00
3792;DHT22;1911;53.768;11.474;2023-04-24T05:46:36;14.80;1.00
3792;DHT22;1911;53.768;11.474;2023-04-24T05:49:02;15.60;99.90
3792;DHT22;1911;53.768;11.474;2023-04-24T05:51:28;16.50;99.90
3792;DHT22;1911;53.768;11.474;2023-04-24T05:53:53;17.80;1.00
3792;DHT22;1911;53.768;11.474;2023-04-24T05:56:19;18.50;99.90
3792;DHT22;1911;53.768;11.474;2023-04-24T05:58:46;18.30;99.90
3792;DHT22;1911;53.768;11.474;2023-04-24T06:01:12;17.60;99.90
3792;DHT22;1911;53.768;11.474;2023-04-24T06:03:40;16.70;99.90
3792;DHT22;1911;53.768;11.474;2023-04-24T06:06:07;15.60;99.90
3792;DHT22;1911;53.768;11.474;2023-04-24T06:08:33;14.70;1.00
3792;DHT22;1911;53.768;11.474;2023-04-24T06:10:59;14.20;1.00
3792;DHT22;1911;53.768;11.474;2023-04-24T06:13:24;14.00;1.00
3792;DHT22;1911;53.768;11.474;2023-04-24T06:15:50;13.80;1.00
3792;DHT22;1911;53.768;11.474;2023-04-24T06:18:16;13.50;4.80
3792;DHT22;1911;53.768;11.474;2023-04-24T06:20:42;13.30;1.00
3792;DHT22;1911;53.768;11.474;2023-04-24T06:23:08;13.10;43.40
3792;DHT22;1911;53.768;11.474;2023-04-24T06:25:33;13.10;99.90
3792;DHT22;1911;53.768;11.474;2023-04-24T06:27:59;13.20;99.90
3792;DHT22;1911;53.768;11.474;2023-04-24T06:30:25;13.10;68.70
3792;DHT22;1911;53.768;11.474;2023-04-24T06:32:52;13.00;99.90
3792;DHT22;1911;53.768;11.474;2023-04-24T06:35:17;13.20;99.90
3792;DHT22;1911;53.768;11.474;2023-04-24T06:37:43;13.10;99.90
3792;DHT22;1911;53.768;11.474;2023-04-24T06:40:09;13.30;99.90
3792;DHT22;1911;53.768;11.474;2023-04-24T06:42:35;13.50;99.90
3792;DHT22;1911;53.768;11.474;2023-04-24T06:45:01;14.00;23.00
3792;DHT22;1911;53.768;11.474;2023-04-24T06:47:27;14.60;1.00
3792;DHT22;1911;53.768;11.474;2023-04-24T06:49:53;14.30;1.00
3792;DHT22;1911;53.768;11.474;2023-04-24T06:52:19;14.10;1.00
3792;DHT22;1911;53.768;11.474;2023-04-24T06:54:45;13.70;1.00
3792;DHT22;1911;53.768;11.474;2023-04-24T06:57:10;13.50;1.00
3792;DHT22;1911;53.768;11.474;2023-04-24T06:59:37;13.50;1.00
3792;DHT22;1911;53.768;11.474;2023-04-24T07:02:02;13.50;1.00
3792;DHT22;1911;53.768;11.474;2023-04-24T07:04:28;14.10;1.00
3792;DHT22;1911;53.768;11.474;2023-04-24T07:06:54;14.30;1.00
3792;DHT22;1911;53.768;11.474;2023-04-24T07:09:21;14.60;1.00
3792;DHT22;1911;53.768;11.474;2023-04-24T07:11:47;15.00;1.00
3792;DHT22;1911;53.768;11.474;2023-04-24T07:14:13;15.10;1.00
3792;DHT22;1911;53.768;11.474;2023-04-24T07:16:39;15.70;99.90
3792;DHT22;1911;53.768;11.474;2023-04-24T07:19:05;15.90;99.90
3792;DHT22;1911;53.768;11.474;2023-04-24T07:21:30;16.50;99.90
3792;DHT22;1911;53.768;11.474;2023-04-24T07:23:58;17.40;99.90
3792;DHT22;1911;53.768;11.474;2023-04-24T07:26:23;17.70;1.00
3792;DHT22;1911;53.768;11.474;2023-04-24T07:28:49;17.60;1.00
3792;DHT22;1911;53.768;11.474;2023-04-24T07:31:15;18.20;1.00
3792;DHT22;1911;53.768;11.474;2023-04-24T07:33:40;18.60;1.00
3792;DHT22;1911;53.768;11.474;2023-04-24T07:36:06;19.20;1.00
3792;DHT22;1911;53.768;11.474;2023-04-24T07:38:31;19.40;1.00
3792;DHT22;1911;53.768;11.474;2023-04-24T07:40:57;19.50;1.00
3792;DHT22;1911;53.768;11.474;2023-04-24T07:43:23;19.40;1.00
3792;DHT22;1911;53.768;11.474;2023-04-24T07:45:50;19.60;1.00
3792;DHT22;1911;53.768;11.474;2023-04-24T07:48:15;19.80;1.00
3792;DHT22;1911;53.768;11.474;2023-04-24T07:50:43;19.70;99.90
3792;DHT22;1911;53.768;11.474;2023-04-24T07:53:09;19.90;99.90
3792;DHT22;1911;53.768;11.474;2023-04-24T07:55:35;20.00;99.90
3792;DHT22;1911;53.768;11.474;2023-04-24T07:58:00;19.90;99.90
3792;DHT22;1911;53.768;11.474;2023-04-24T08:00:26;20.20;99.90
3792;DHT22;1911;53.768;11.474;2023-04-24T08:02:52;19.70;99.90
3792;DHT22;1911;53.768;11.474;2023-04-24T08:05:18;19.60;99.90
3792;DHT22;1911;53.768;11.474;2023-04-24T08:07:43;19.30;99.90
3792;DHT22;1911;53.768;11.474;2023-04-24T08:10:11;18.40;99.90
3792;DHT22;1911;53.768;11.474;2023-04-24T08:12:37;18.40;99.90
3792;DHT22;1911;53.768;11.474;2023-04-24T08:15:04;18.50;99.90
3792;DHT22;1911;53.768;11.474;2023-04-24T08:17:30;19.00;99.90
3792;DHT22;1911;53.768;11.474;2023-04-24T08:19:56;18.40;99.90
3792;DHT22;1911;53.768;11.474;2023-04-24T08:22:29;17.80;99.90
3792;DHT22;1911;53.768;11.474;2023-04-24T08:24:55;17.50;99.90
3792;DHT22;1911;53.768;11.474;2023-04-24T08:27:22;17.30;99.90
3792;DHT22;1911;53.768;11.474;2023-04-24T08:29:48;17.40;99.90
3792;DHT22;1911;53.768;11.474;2023-04-24T08:32:14;17.60;99.90
3792;DHT22;1911;53.768;11.474;2023-04-24T08:34:40;17.80;99.90
3792;DHT22;1911;53.768;11.474;2023-04-24T08:37:05;18.10;99.90
3792;DHT22;1911;53.768;11.474;2023-04-24T08:39:31;18.30;99.90
3792;DHT22;1911;53.768;11.474;2023-04-24T08:41:56;17.60;99.90
3792;DHT22;1911;53.768;11.474;2023-04-24T08:44:23;16.90;99.90
3792;DHT22;1911;53.768;11.474;2023-04-24T08:46:49;16.50;99.90
3792;DHT22;1911;53.768;11.474;2023-04-24T08:49:15;16.00;99.90
3792;DHT22;1911;53.768;11.474;2023-04-24T08:51:42;15.40;99.90
3792;DHT22;1911;53.768;11.474;2023-04-24T08:54:08;15.00;99.90
3792;DHT22;1911;53.768;11.474;2023-04-24T08:56:35;14.70;99.90
3792;DHT22;1911;53.768;11.474;2023-04-24T08:59:03;14.90;1.00
3792;DHT22;1911;53.768;11.474;2023-04-24T09:01:32;15.60;1.00
3792;DHT22;1911;53.768;11.474;2023-04-24T09:04:03;16.30;99.90
3792;DHT22;1911;53.768;11.474;2023-04-24T09:06:30;16.10;99.90
3792;DHT22;1911;53.768;11.474;2023-04-24T09:08:59;15.70;99.90
3792;DHT22;1911;53.768;11.474;2023-04-24T09:11:26;16.00;99.90
3792;DHT22;1911;53.768;11.474;2023-04-24T09:13:53;16.60;99.90
3792;DHT22;1911;53.768;11.474;2023-04-24T09:16:19;17.30;99.90
3792;DHT22;1911;53.768;11.474;2023-04-24T09:18:45;17.10;99.90
3792;DHT22;1911;53.768;11.474;2023-04-24T09:21:11;16.70;99.90
3792;DHT22;1911;53.768;11.474;2023-04-24T09:23:37;16.20;99.90
3792;DHT22;1911;53.768;11.474;2023-04-24T09:26:03;15.60;99.90
3792;DHT22;1911;53.768;11.474;2023-04-24T09:28:39;15.20;99.90
3792;DHT22;1911;53.768;11.474;2023-04-24T09:33:35;15.10;99.90
3792;DHT22;1911;53.768;11.474;2023-04-24T09:36:02;15.00;99.90
3792;DHT22;1911;53.768;11.474;2023-04-24T09:38:38;15.00;99.90
3792;DHT22;1911;53.768;11.474;2023-04-24T09:41:06;15.10;99.90
3792;DHT22;1911;53.768;11.474;2023-04-24T09:43:32;15.00;99.90
3792;DHT22;1911;53.768;11.474;2023-04-24T09:46:00;14.80;1.00
3792;DHT22;1911;53.768;11.474;2023-04-24T09:48:37;14.70;1.00
3792;DHT22;1911;53.768;11.474;2023-04-24T09:51:04;15.00;1.00
3792;DHT22;1911;53.768;11.474;2023-04-24T09:53:32;15.30;99.90
3792;DHT22;1911;53.768;11.474;2023-04-24T09:56:09;15.30;1.00
3792;DHT22;1911;53.768;11.474;2023-04-24T09:58:36;15.20;99.90
3792;DHT22;1911;53.768;11.474;2023-04-24T10:01:02;15.00;1.00
3792;DHT22;1911;53.768;11.474;2023-04-24T10:03:32;14.90;1.00
3792;DHT22;1911;53.768;11.474;2023-04-24T10:05:59;14.70;1.00
3792;DHT22;1911;53.768;11.474;2023-04-24T10:08:25;14.60;1.00
3792;DHT22;1911;53.768;11.474;2023-04-24T10:10:52;14.60;1.00
3792;DHT22;1911;53.768;11.474;2023-04-24T10:13:18;14.40;1.00
3792;DHT22;1911;53.768;11.474;2023-04-24T10:15:44;14.40;1.00
3792;DHT22;1911;53.768;11.474;2023-04-24T10:18:11;14.50;1.00
3792;DHT22;1911;53.768;11.474;2023-04-24T10:20:39;14.60;1.00
3792;DHT22;1911;53.768;11.474;2023-04-24T10:23:05;14.80;1.00
3792;DHT22;1911;53.768;11.474;2023-04-24T10:25:33;15.00;1.00
3792;DHT22;1911;53.768;11.474;2023-04-24T10:28:00;15.20;1.00
3792;DHT22;1911;53.768;11.474;2023-04-24T10:30:32;15.40;1.00
3792;DHT22;1911;53.768;11.474;2023-04-24T10:33:04;15.50;1.00
3792;DHT22;1911;53.768;11.474;2023-04-24T10:35:37;15.40;1.00
3792;DHT22;1911;53.768;11.474;2023-04-24T10:38:05;15.50;1.00
3792;DHT22;1911;53.768;11.474;2023-04-24T10:40:33;15.50;1.00
3792;DHT22;1911;53.768;11.474;2023-04-24T10:43:02;15.50;1.00
3792;DHT22;1911;53.768;11.474;2023-04-24T10:45:31;15.30;1.00
3792;DHT22;1911;53.768;11.474;2023-04-24T10:50:22;14.90;1.00
3792;DHT22;1911;53.768;11.474;2023-04-24T10:52:49;14.70;1.00
3792;DHT22;1911;53.768;11.474;2023-04-24T10:55:42;14.50;1.00
3792;DHT22;1911;53.768;11.474;2023-04-24T10:58:09;14.20;1.00
3792;DHT22;1911;53.768;11.474;2023-04-24T11:00:40;14.10;1.00
3792;DHT22;1911;53.768;11.474;2023-04-24T11:03:09;13.90;1.00
3792;DHT22;1911;53.768;11.474;2023-04-24T11:05:58;13.90;1.00
3792;DHT22;1911;53.768;11.474;2023-04-24T11:08:37;13.80;53.00
3792;DHT22;1911;53.768;11.474;2023-04-24T11:11:09;13.60;99.90
3792;DHT22;1911;53.768;11.474;2023-04-24T11:16:27;13.50;99.90
3792;DHT22;1911;53.768;11.474;2023-04-24T11:19:24;13.50;99.90
3792;DHT22;1911;53.768;11.474;2023-04-24T11:30:07;13.20;99.90
3792;DHT22;1911;53.768;11.474;2023-04-24T11:35:19;13.10;1.00
3792;DHT22;1911;53.768;11.474;2023-04-24T11:37:48;13.00;45.20
3792;DHT22;1911;53.768;11.474;2023-04-24T11:40:17;13.10;53.40
3792;DHT22;1911;53.768;11.474;2023-04-24T11:42:47;13.20;1.00
3792;DHT22;1911;53.768;11.474;2023-04-24T11:45:18;13.20;1.00
3792;DHT22;1911;53.768;11.474;2023-04-24T11:47:44;13.10;1.00
3792;DHT22;1911;53.768;11.474;2023-04-24T11:50:12;13.20;99.90
3792;DHT22;1911;53.768;11.474;2023-04-24T11:52:42;13.40;99.90
3792;DHT22;1911;53.768;11.474;2023-04-24T11:55:29;13.50;99.90
3792;DHT22;1911;53.768;11.474;2023-04-24T11:57:56;13.50;99.90
3792;DHT22;1911;53.768;11.474;2023-04-24T12:00:26;13.40;99.90
3792;DHT22;1911;53.768;11.474;2023-04-24T12:03:04;13.40;59.20
3792;DHT22;1911;53.768;11.474;2023-04-24T12:05:30;13.30;1.00
3792;DHT22;1911;53.768;11.474;2023-04-24T12:07:56;13.40;56.00
3792;DHT22;1911;53.768;11.474;2023-04-24T12:10:23;13.40;1.00
3792;DHT22;1911;53.768;11.474;2023-04-24T12:12:50;13.50;1.00
3792;DHT22;1911;53.768;11.474;2023-04-24T12:15:17;13.70;1.00
3792;DHT22;1911;53.768;11.474;2023-04-24T12:17:44;14.10;1.00
3792;DHT22;1911;53.768;11.474;2023-04-24T12:20:10;14.60;1.00
3792;DHT22;1911;53.768;11.474;2023-04-24T12:22:47;14.90;99.90
3792;DHT22;1911;53.768;11.474;2023-04-24T12:25:15;14.90;99.90
3792;DHT22;1911;53.768;11.474;2023-04-24T12:27:42;15.20;99.90
3792;DHT22;1911;53.768;11.474;2023-04-24T12:30:14;15.60;99.90
3792;DHT22;1911;53.768;11.474;2023-04-24T12:32:42;15.80;59.50
3792;DHT22;1911;53.768;11.474;2023-04-24T12:35:08;15.80;1.00
3792;DHT22;1911;53.768;11.474;2023-04-24T12:37:34;15.80;1.00
3792;DHT22;1911;53.768;11.474;2023-04-24T12:42:29;15.30;1.00
3792;DHT22;1911;53.768;11.474;2023-04-24T12:45:02;15.30;1.00
3792;DHT22;1911;53.768;11.474;2023-04-24T12:47:29;15.20;1.00
3792;DHT22;1911;53.768;11.474;2023-04-24T12:49:55;15.00;1.00
3792;DHT22;1911;53.768;11.474;2023-04-24T12:52:22;14.90;1.00
3792;DHT22;1911;53.768;11.474;2023-04-24T12:54:49;15.20;1.00
3792;DHT22;1911;53.768;11.474;2023-04-24T12:57:15;15.50;1.00
3792;DHT22;1911;53.768;11.474;2023-04-24T12:59:41;15.50;1.00
3792;DHT22;1911;53.768;11.474;2023-04-24T13:02:06;15.40;1.00
3792;DHT22;1911;53.768;11.474;2023-04-24T13:04:32;15.50;99.90
3792;DHT22;1911;53.768;11.474;2023-04-24T13:06:58;15.40;99.90
3792;DHT22;1911;53.768;11.474;2023-04-24T13:09:23;15.30;99.90
3792;DHT22;1911;53.768;11.474;2023-04-24T13:11:49;15.10;99.90
3792;DHT22;1911;53.768;11.474;2023-04-24T13:14:15;14.90;99.90
3792;DHT22;1911;53.768;11.474;2023-04-24T13:16:41;15.00;99.90
3792;DHT22;1911;53.768;11.474;2023-04-24T13:19:06;15.20;99.90
3792;DHT22;1911;53.768;11.474;2023-04-24T13:21:32;15.10;99.90
3792;DHT22;1911;53.768;11.474;2023-04-24T13:23:58;14.80;99.90
3792;DHT22;1911;53.768;11.474;2023-04-24T13:26:24;14.90;99.90
3792;DHT22;1911;53.768;11.474;2023-04-24T13:28:50;15.00;99.90
3792;DHT22;1911;53.768;11.474;2023-04-24T13:31:15;15.10;99.90
3792;DHT22;1911;53.768;11.474;2023-04-24T13:33:41;15.10;99.90
3792;DHT22;1911;53.768;11.474;2023-04-24T13:36:07;15.00;99.90
3792;DHT22;1911;53.768;11.474;2023-04-24T13:38:34;15.00;99.90
3792;DHT22;1911;53.768;11.474;2023-04-24T13:40:59;15.10;99.90
3792;DHT22;1911;53.768;11.474;2023-04-24T13:43:27;15.00;99.90
3792;DHT22;1911;53.768;11.474;2023-04-24T13:45:53;15.10;99.90
3792;DHT22;1911;53.768;11.474;2023-04-24T13:48:19;15.30;99.90
3792;DHT22;1911;53.768;11.474;2023-04-24T13:50:44;15.40;99.90
3792;DHT22;1911;53.768;11.474;2023-04-24T13:53:13;15.10;99.90
3792;DHT22;1911;53.768;11.474;2023-04-24T13:55:39;14.80;99.90
3792;DHT22;1911;53.768;11.474;2023-04-24T13:58:04;14.70;99.90
3792;DHT22;1911;53.768;11.474;2023-04-24T14:00:30;14.90;99.90
3792;DHT22;1911;53.768;11.474;2023-04-24T14:02:56;14.90;99.90
3792;DHT22;1911;53.768;11.474;2023-04-24T14:05:22;14.90;99.90
3792;DHT22;1911;53.768;11.474;2023-04-24T14:07:47;14.90;99.90
3792;DHT22;1911;53.768;11.474;2023-04-24T14:10:13;14.90;99.90
3792;DHT22;1911;53.768;11.474;2023-04-24T14:12:38;14.60;99.90
3792;DHT22;1911;53.768;11.474;2023-04-24T14:15:04;14.50;99.90
3792;DHT22;1911;53.768;11.474;2023-04-24T14:17:30;14.20;99.90
3792;DHT22;1911;53.768;11.474;2023-04-24T14:19:58;14.20;99.90
3792;DHT22;1911;53.768;11.474;2023-04-24T14:22:25;14.20;99.90
3792;DHT22;1911;53.768;11.474;2023-04-24T14:24:51;14.20;99.90
3792;DHT22;1911;53.768;11.474;2023-04-24T14:27:17;14.10;99.90
3792;DHT22;1911;53.768;11.474;2023-04-24T14:29:42;14.10;99.90
3792;DHT22;1911;53.768;11.474;2023-04-24T14:32:10;14.20;99.90
3792;DHT22;1911;53.768;11.474;2023-04-24T14:34:36;14.30;99.90
3792;DHT22;1911;53.768;11.474;2023-04-24T14:37:01;14.40;99.90
3792;DHT22;1911;53.768;11.474;2023-04-24T14:42:03;14.20;99.90
3792;DHT22;1911;53.768;11.474;2023-04-24T14:44:28;14.10;99.90
3792;DHT22;1911;53.768;11.474;2023-04-24T14:46:54;13.80;99.90
3792;DHT22;1911;53.768;11.474;2023-04-24T14:49:20;13.60;99.90
3792;DHT22;1911;53.768;11.474;2023-04-24T14:51:45;13.50;1.00
3792;DHT22;1911;53.768;11.474;2023-04-24T14:54:12;13.30;1.00
3792;DHT22;1911;53.768;11.474;2023-04-24T14:56:38;13.30;1.00
3792;DHT22;1911;53.768;11.474;2023-04-24T14:59:06;13.50;1.00
3792;DHT22;1911;53.768;11.474;2023-04-24T15:01:32;13.60;99.90
3792;DHT22;1911;53.768;11.474;2023-04-24T15:03:58;13.60;99.90
3792;DHT22;1911;53.768;11.474;2023-04-24T15:06:23;13.50;99.90
3792;DHT22;1911;53.768;11.474;2023-04-24T15:08:50;13.50;99.90
3792;DHT22;1911;53.768;11.474;2023-04-24T15:11:15;13.60;99.90
3792;DHT22;1911;53.768;11.474;2023-04-24T15:13:41;13.60;99.90
3792;DHT22;1911;53.768;11.474;2023-04-24T15:16:07;13.40;99.90
3792;DHT22;1911;53.768;11.474;2023-04-24T15:18:32;13.30;1.00
3792;DHT22;1911;53.768;11.474;2023-04-24T15:20:58;13.30;99.90
3792;DHT22;1911;53.768;11.474;2023-04-24T15:23:23;13.40;1.00
3792;DHT22;1911;53.768;11.474;2023-04-24T15:25:49;13.40;1.00
3792;DHT22;1911;53.768;11.474;2023-04-24T15:28:14;13.40;1.00
3792;DHT22;1911;53.768;11.474;2023-04-24T15:30:41;13.30;1.00
3792;DHT22;1911;53.768;11.474;2023-04-24T15:33:07;13.10;1.00
3792;DHT22;1911;53.768;11.474;2023-04-24T15:35:33;12.80;1.00
3792;DHT22;1911;53.768;11.474;2023-04-24T15:37:59;12.50;99.90
3792;DHT22;1911;53.768;11.474;2023-04-24T15:40:24;12.40;1.00
3792;DHT22;1911;53.768;11.474;2023-04-24T15:42:50;12.60;1.00
3792;DHT22;1911;53.768;11.474;2023-04-24T15:45:16;12.80;1.00
3792;DHT22;1911;53.768;11.474;2023-04-24T15:47:41;12.70;95.30
3792;DHT22;1911;53.768;11.474;2023-04-24T15:50:09;12.80;99.90
3792;DHT22;1911;53.768;11.474;2023-04-24T15:52:35;12.60;99.90
3792;DHT22;1911;53.768;11.474;2023-04-24T15:55:03;12.40;99.90
3792;DHT22;1911;53.768;11.474;2023-04-24T15:57:29;12.40;99.90
3792;DHT22;1911;53.768;11.474;2023-04-24T15:59:55;12.20;1.00
3792;DHT22;1911;53.768;11.474;2023-04-24T16:02:20;12.20;1.00
3792;DHT22;1911;53.768;11.474;2023-04-24T16:04:48;12.10;1.00
3792;DHT22;1911;53.768;11.474;2023-04-24T16:07:15;12.00;1.00
3792;DHT22;1911;53.768;11.474;2023-04-24T16:09:43;12.00;1.00
3792;DHT22;1911;53.768;11.474;2023-04-24T16:12:08;12.00;38.30
3792;DHT22;1911;53.768;11.474;2023-04-24T16:14:35;12.10;99.90